sensor_id;sensor_type;location;lat;lon;timestamp;temperature;humidity
20815;DHT22;10568;48.176;16.316;2023-06-24T00:02:12;17.50;99.90
20815;DHT22;10568;48.176;16.316;2023-06-24T00:04:38;17.50;99.90
20815;DHT22;10568;48.176;16.316;2023-06-24T00:07:03;17.40;99.90
20815;DHT22;10568;48.176;16.316;2023-06-24T00:09:29;17.40;99.90
20815;DHT22;10568;48.176;16.316;2023-06-24T00:11:56;17.30;99.90
20815;DHT22;10568;48.176;16.316;2023-06-24T00:14:23;17.30;99.90
20815;DHT22;10568;48.176;16.316;2023-06-24T00:16:52;17.20;99.90
20815;DHT22;10568;48.176;16.316;2023-06-24T00:19:24;17.20;99.90
20815;DHT22;10568;48.176;16.316;2023-06-24T00:21:51;17.10;99.90
20815;DHT22;10568;48.176;16.316;2023-06-24T00:24:21;17.10;99.90
20815;DHT22;10568;48.176;16.316;2023-06-24T00:26:54;17.10;99.90
20815;DHT22;10568;48.176;16.316;2023-06-24T00:29:20;17.10;99.90
20815;DHT22;10568;48.176;16.316;2023-06-24T00:31:46;17.00;99.90
20815;DHT22;10568;48.176;16.316;2023-06-24T00:34:12;17.00;99.90
20815;DHT22;10568;48.176;16.316;2023-06-24T00:36:37;17.00;99.90
20815;DHT22;10568;48.176;16.316;2023-06-24T00:39:04;17.00;99.90
20815;DHT22;10568;48.176;16.316;2023-06-24T00:41:31;17.00;99.90
20815;DHT22;10568;48.176;16.316;2023-06-24T00:43:58;17.10;99.90
20815;DHT22;10568;48.176;16.316;2023-06-24T00:46:27;17.10;99.90
20815;DHT22;10568;48.176;16.316;2023-06-24T00:48:57;17.10;99.90
20815;DHT22;10568;48.176;16.316;2023-06-24T00:51:23;17.20;99.90
20815;DHT22;10568;48.176;16.316;2023-06-24T00:53:56;17.20;99.90
20815;DHT22;10568;48.176;16.316;2023-06-24T00:56:56;17.20;99.90
20815;DHT22;10568;48.176;16.316;2023-06-24T00:59:16;17.20;99.90
20815;DHT22;10568;48.176;16.316;2023-06-24T01:01:42;17.20;99.90
20815;DHT22;10568;48.176;16.316;2023-06-24T01:04:10;17.20;99.90
20815;DHT22;10568;48.176;16.316;2023-06-24T01:06:36;17.30;99.90
20815;DHT22;10568;48.176;16.316;2023-06-24T01:09:02;17.20;99.90
20815;DHT22;10568;48.176;16.316;2023-06-24T01:11:30;17.20;99.90
20815;DHT22;10568;48.176;16.316;2023-06-24T01:13:57;17.20;99.90
20815;DHT22;10568;48.176;16.316;2023-06-24T01:16:33;17.20;99.90
20815;DHT22;10568;48.176;16.316;2023-06-24T01:24:48;17.20;99.90
20815;DHT22;10568;48.176;16.316;2023-06-24T01:33:02;17.20;99.90
20815;DHT22;10568;48.176;16.316;2023-06-24T01:35:31;17.20;99.90
20815;DHT22;10568;48.176;16.316;2023-06-24T01:38:01;17.20;99.90
20815;DHT22;10568;48.176;16.316;2023-06-24T01:40:37;17.20;99.90
20815;DHT22;10568;48.176;16.316;2023-06-24T01:43:06;17.20;99.90
20815;DHT22;10568;48.176;16.316;2023-06-24T01:45:40;17.20;99.90
20815;DHT22;10568;48.176;16.316;2023-06-24T01:48:12;17.20;99.90
20815;DHT22;10568;48.176;16.316;2023-06-24T01:50:42;17.20;99.90
20815;DHT22;10568;48.176;16.316;2023-06-24T01:53:09;17.20;99.90
20815;DHT22;10568;48.176;16.316;2023-06-24T01:55:37;17.20;99.90
20815;DHT22;10568;48.176;16.316;2023-06-24T01:58:06;17.20;99.90
20815;DHT22;10568;48.176;16.316;2023-06-24T02:00:34;17.20;99.90
20815;DHT22;10568;48.176;16.316;2023-06-24T02:03:01;17.20;99.90
20815;DHT22;10568;48.176;16.316;2023-06-24T02:05:28;17.20;99.90
20815;DHT22;10568;48.176;16.316;2023-06-24T02:07:56;17.20;99.90
20815;DHT22;10568;48.176;16.316;2023-06-24T02:10:23;17.20;99.90
20815;DHT22;10568;48.176;16.316;2023-06-24T02:12:50;17.20;99.90
20815;DHT22;10568;48.176;16.316;2023-06-24T02:15:18;17.30;99.90
20815;DHT22;10568;48.176;16.316;2023-06-24T02:17:46;17.20;99.90
20815;DHT22;10568;48.176;16.316;2023-06-24T02:20:14;17.20;99.90
20815;DHT22;10568;48.176;16.316;2023-06-24T02:22:41;17.20;99.90
20815;DHT22;10568;48.176;16.316;2023-06-24T02:25:09;17.20;99.90
20815;DHT22;10568;48.176;16.316;2023-06-24T02:27:36;17.20;99.90
20815;DHT22;10568;48.176;16.316;2023-06-24T02:30:03;17.20;99.90
20815;DHT22;10568;48.176;16.316;2023-06-24T02:32:30;17.20;99.90
20815;DHT22;10568;48.176;16.316;2023-06-24T02:34:57;17.20;99.90
20815;DHT22;10568;48.176;16.316;2023-06-24T02:37:24;17.20;99.90
20815;DHT22;10568;48.176;16.316;2023-06-24T02:39:50;17.20;99.90
20815;DHT22;10568;48.176;16.316;2023-06-24T02:42:16;17.20;99.90
20815;DHT22;10568;48.176;16.316;2023-06-24T02:44:42;17.20;99.90
20815;DHT22;10568;48.176;16.316;2023-06-24T02:47:10;17.20;99.90
20815;DHT22;10568;48.176;16.316;2023-06-24T02:49:39;17.20;99.90
20815;DHT22;10568;48.176;16.316;2023-06-24T02:52:05;17.20;99.90
20815;DHT22;10568;48.176;16.316;2023-06-24T02:54:33;17.20;99.90
20815;DHT22;10568;48.176;16.316;2023-06-24T02:56:59;17.20;99.90
20815;DHT22;10568;48.176;16.316;2023-06-24T02:59:25;17.10;99.90
20815;DHT22;10568;48.176;16.316;2023-06-24T03:01:51;17.10;99.90
20815;DHT22;10568;48.176;16.316;2023-06-24T03:04:20;17.10;99.90
20815;DHT22;10568;48.176;16.316;2023-06-24T03:06:46;17.10;99.90
20815;DHT22;10568;48.176;16.316;2023-06-24T03:09:14;17.10;99.90
20815;DHT22;10568;48.176;16.316;2023-06-24T03:11:42;17.10;99.90
20815;DHT22;10568;48.176;16.316;2023-06-24T03:14:08;17.00;99.90
20815;DHT22;10568;48.176;16.316;2023-06-24T03:16:34;17.00;99.90
20815;DHT22;10568;48.176;16.316;2023-06-24T03:19:00;16.90;99.90
20815;DHT22;10568;48.176;16.316;2023-06-24T03:21:25;17.00;99.90
20815;DHT22;10568;48.176;16.316;2023-06-24T03:23:57;16.90;99.90
20815;DHT22;10568;48.176;16.316;2023-06-24T03:26:31;16.90;99.90
20815;DHT22;10568;48.176;16.316;2023-06-24T03:28:57;16.90;99.90
20815;DHT22;10568;48.176;16.316;2023-06-24T03:31:23;16.90;99.90
20815;DHT22;10568;48.176;16.316;2023-06-24T03:33:49;16.80;99.90
20815;DHT22;10568;48.176;16.316;2023-06-24T03:36:15;16.80;99.90
20815;DHT22;10568;48.176;16.316;2023-06-24T03:38:41;16.80;99.90
20815;DHT22;10568;48.176;16.316;2023-06-24T03:41:06;16.80;99.90
20815;DHT22;10568;48.176;16.316;2023-06-24T03:43:32;16.80;99.90
20815;DHT22;10568;48.176;16.316;2023-06-24T03:46:04;16.80;99.90
20815;DHT22;10568;48.176;16.316;2023-06-24T03:48:39;16.70;99.90
20815;DHT22;10568;48.176;16.316;2023-06-24T03:51:05;16.70;99.90
20815;DHT22;10568;48.176;16.316;2023-06-24T03:53:31;16.80;99.90
20815;DHT22;10568;48.176;16.316;2023-06-24T03:55:58;16.90;99.90
20815;DHT22;10568;48.176;16.316;2023-06-24T03:58:24;16.80;99.90
20815;DHT22;10568;48.176;16.316;2023-06-24T04:00:50;16.70;99.90
20815;DHT22;10568;48.176;16.316;2023-06-24T04:03:16;16.70;99.90
20815;DHT22;10568;48.176;16.316;2023-06-24T04:05:44;16.60;99.90
20815;DHT22;10568;48.176;16.316;2023-06-24T04:08:10;16.70;99.90
20815;DHT22;10568;48.176;16.316;2023-06-24T04:10:36;16.70;99.90
20815;DHT22;10568;48.176;16.316;2023-06-24T04:13:02;16.70;99.90
20815;DHT22;10568;48.176;16.316;2023-06-24T04:15:27;16.70;99.90
20815;DHT22;10568;48.176;16.316;2023-06-24T04:17:53;16.70;99.90
20815;DHT22;10568;48.176;16.316;2023-06-24T04:20:19;16.70;99.90
20815;DHT22;10568;48.176;16.316;2023-06-24T04:22:45;16.70;99.90
20815;DHT22;10568;48.176;16.316;2023-06-24T04:25:11;16.70;99.90
20815;DHT22;10568;48.176;16.316;2023-06-24T04:27:37;16.70;99.90
20815;DHT22;10568;48.176;16.316;2023-06-24T04:30:04;16.80;99.90
20815;DHT22;10568;48.176;16.316;2023-06-24T04:32:30;16.80;99.90
20815;DHT22;10568;48.176;16.316;2023-06-24T04:34:57;16.80;99.90
20815;DHT22;10568;48.176;16.316;2023-06-24T04:37:23;16.70;99.90
20815;DHT22;10568;48.176;16.316;2023-06-24T04:39:48;16.70;99.90
20815;DHT22;10568;48.176;16.316;2023-06-24T04:42:14;16.80;99.90
20815;DHT22;10568;48.176;16.316;2023-06-24T04:44:40;16.80;99.90
20815;DHT22;10568;48.176;16.316;2023-06-24T04:47:06;16.80;99.90
20815;DHT22;10568;48.176;16.316;2023-06-24T04:49:32;16.90;99.90
20815;DHT22;10568;48.176;16.316;2023-06-24T04:52:02;16.80;99.90
20815;DHT22;10568;48.176;16.316;2023-06-24T04:54:28;16.70;99.90
20815;DHT22;10568;48.176;16.316;2023-06-24T04:56:54;16.70;99.90
20815;DHT22;10568;48.176;16.316;2023-06-24T04:59:24;16.60;99.90
20815;DHT22;10568;48.176;16.316;2023-06-24T05:01:50;16.60;99.90
20815;DHT22;10568;48.176;16.316;2023-06-24T05:04:15;16.70;99.90
20815;DHT22;10568;48.176;16.316;2023-06-24T05:06:41;16.70;99.90
20815;DHT22;10568;48.176;16.316;2023-06-24T05:09:07;16.70;99.90
20815;DHT22;10568;48.176;16.316;2023-06-24T05:11:33;16.80;99.90
20815;DHT22;10568;48.176;16.316;2023-06-24T05:13:59;16.80;99.90
20815;DHT22;10568;48.176;16.316;2023-06-24T05:16:25;16.80;99.90
20815;DHT22;10568;48.176;16.316;2023-06-24T05:18:51;16.70;99.90
20815;DHT22;10568;48.176;16.316;2023-06-24T05:21:16;16.80;99.90
20815;DHT22;10568;48.176;16.316;2023-06-24T05:23:42;16.90;99.90
20815;DHT22;10568;48.176;16.316;2023-06-24T05:26:08;16.80;99.90
20815;DHT22;10568;48.176;16.316;2023-06-24T05:28:34;16.90;99.90
20815;DHT22;10568;48.176;16.316;2023-06-24T05:30:59;17.00;99.90
20815;DHT22;10568;48.176;16.316;2023-06-24T05:33:25;17.00;99.90
20815;DHT22;10568;48.176;16.316;2023-06-24T05:35:51;17.10;99.90
20815;DHT22;10568;48.176;16.316;2023-06-24T05:38:17;17.10;99.90
20815;DHT22;10568;48.176;16.316;2023-06-24T05:40:42;17.10;99.90
20815;DHT22;10568;48.176;16.316;2023-06-24T05:43:08;17.10;99.90
20815;DHT22;10568;48.176;16.316;2023-06-24T05:45:34;17.00;99.90
20815;DHT22;10568;48.176;16.316;2023-06-24T05:48:00;17.10;99.90
20815;DHT22;10568;48.176;16.316;2023-06-24T05:50:25;17.10;99.90
20815;DHT22;10568;48.176;16.316;2023-06-24T05:52:51;17.00;99.90
20815;DHT22;10568;48.176;16.316;2023-06-24T05:55:17;17.00;99.90
20815;DHT22;10568;48.176;16.316;2023-06-24T05:57:43;17.10;99.90
20815;DHT22;10568;48.176;16.316;2023-06-24T06:00:09;17.10;99.90
20815;DHT22;10568;48.176;16.316;2023-06-24T06:02:35;17.10;99.90
20815;DHT22;10568;48.176;16.316;2023-06-24T06:05:01;17.20;99.90
20815;DHT22;10568;48.176;16.316;2023-06-24T06:07:27;17.20;99.90
20815;DHT22;10568;48.176;16.316;2023-06-24T06:09:52;17.30;99.90
20815;DHT22;10568;48.176;16.316;2023-06-24T06:12:18;17.50;99.90
20815;DHT22;10568;48.176;16.316;2023-06-24T06:14:44;17.60;99.90
20815;DHT22;10568;48.176;16.316;2023-06-24T06:17:10;17.50;99.90
20815;DHT22;10568;48.176;16.316;2023-06-24T06:19:35;17.40;99.90
20815;DHT22;10568;48.176;16.316;2023-06-24T06:22:01;17.50;99.90
20815;DHT22;10568;48.176;16.316;2023-06-24T06:24:27;17.50;99.90
20815;DHT22;10568;48.176;16.316;2023-06-24T06:26:52;17.40;99.90
20815;DHT22;10568;48.176;16.316;2023-06-24T06:29:18;17.40;99.90
20815;DHT22;10568;48.176;16.316;2023-06-24T06:31:44;17.30;99.90
20815;DHT22;10568;48.176;16.316;2023-06-24T06:34:10;17.40;99.90
20815;DHT22;10568;48.176;16.316;2023-06-24T06:36:36;17.30;99.90
20815;DHT22;10568;48.176;16.316;2023-06-24T06:39:02;17.30;99.90
20815;DHT22;10568;48.176;16.316;2023-06-24T06:41:27;17.30;99.90
20815;DHT22;10568;48.176;16.316;2023-06-24T06:43:53;17.40;99.90
20815;DHT22;10568;48.176;16.316;2023-06-24T06:46:20;17.40;99.90
20815;DHT22;10568;48.176;16.316;2023-06-24T06:48:46;17.30;99.90
20815;DHT22;10568;48.176;16.316;2023-06-24T06:51:12;17.40;99.90
20815;DHT22;10568;48.176;16.316;2023-06-24T06:53:38;17.40;99.90
20815;DHT22;10568;48.176;16.316;2023-06-24T06:56:04;17.30;99.90
20815;DHT22;10568;48.176;16.316;2023-06-24T06:58:30;17.20;99.90
20815;DHT22;10568;48.176;16.316;2023-06-24T07:00:56;17.00;99.90
20815;DHT22;10568;48.176;16.316;2023-06-24T07:03:26;17.10;99.90
20815;DHT22;10568;48.176;16.316;2023-06-24T07:05:53;17.00;99.90
20815;DHT22;10568;48.176;16.316;2023-06-24T07:08:19;16.90;99.90
20815;DHT22;10568;48.176;16.316;2023-06-24T07:10:44;16.90;99.90
20815;DHT22;10568;48.176;16.316;2023-06-24T07:13:10;16.90;99.90
20815;DHT22;10568;48.176;16.316;2023-06-24T07:15:36;16.90;99.90
20815;DHT22;10568;48.176;16.316;2023-06-24T07:18:02;16.80;99.90
20815;DHT22;10568;48.176;16.316;2023-06-24T07:20:28;16.80;99.90
20815;DHT22;10568;48.176;16.316;2023-06-24T07:22:53;16.90;99.90
20815;DHT22;10568;48.176;16.316;2023-06-24T07:25:19;17.10;99.90
20815;DHT22;10568;48.176;16.316;2023-06-24T07:27:45;17.30;99.90
20815;DHT22;10568;48.176;16.316;2023-06-24T07:30:11;17.50;99.90
20815;DHT22;10568;48.176;16.316;2023-06-24T07:32:36;17.60;99.90
20815;DHT22;10568;48.176;16.316;2023-06-24T07:35:02;17.90;99.90
20815;DHT22;10568;48.176;16.316;2023-06-24T07:37:28;17.90;99.90
20815;DHT22;10568;48.176;16.316;2023-06-24T07:39:54;17.70;99.90
20815;DHT22;10568;48.176;16.316;2023-06-24T07:42:20;17.70;99.90
20815;DHT22;10568;48.176;16.316;2023-06-24T07:44:46;17.50;99.90
20815;DHT22;10568;48.176;16.316;2023-06-24T07:47:12;17.70;99.90
20815;DHT22;10568;48.176;16.316;2023-06-24T07:49:38;17.70;99.90
20815;DHT22;10568;48.176;16.316;2023-06-24T07:52:04;17.60;99.90
20815;DHT22;10568;48.176;16.316;2023-06-24T07:54:31;17.70;99.90
20815;DHT22;10568;48.176;16.316;2023-06-24T07:56:57;17.50;99.90
20815;DHT22;10568;48.176;16.316;2023-06-24T07:59:23;17.70;99.90
20815;DHT22;10568;48.176;16.316;2023-06-24T08:01:49;17.60;99.90
20815;DHT22;10568;48.176;16.316;2023-06-24T08:04:15;17.60;99.90
20815;DHT22;10568;48.176;16.316;2023-06-24T08:06:41;17.70;99.90
20815;DHT22;10568;48.176;16.316;2023-06-24T08:09:07;17.70;99.90
20815;DHT22;10568;48.176;16.316;2023-06-24T08:11:33;17.70;99.90
20815;DHT22;10568;48.176;16.316;2023-06-24T08:13:58;17.70;99.90
20815;DHT22;10568;48.176;16.316;2023-06-24T08:16:24;17.70;99.90
20815;DHT22;10568;48.176;16.316;2023-06-24T08:18:50;17.70;99.90
20815;DHT22;10568;48.176;16.316;2023-06-24T08:21:26;17.60;99.90
20815;DHT22;10568;48.176;16.316;2023-06-24T08:23:51;17.60;99.90
20815;DHT22;10568;48.176;16.316;2023-06-24T08:26:19;17.60;99.90
20815;DHT22;10568;48.176;16.316;2023-06-24T08:28:47;17.70;99.90
20815;DHT22;10568;48.176;16.316;2023-06-24T08:31:13;17.80;99.90
20815;DHT22;10568;48.176;16.316;2023-06-24T08:33:42;17.80;99.90
20815;DHT22;10568;48.176;16.316;2023-06-24T08:36:08;17.70;99.90
20815;DHT22;10568;48.176;16.316;2023-06-24T08:38:34;17.80;99.90
20815;DHT22;10568;48.176;16.316;2023-06-24T08:41:00;17.80;99.90
20815;DHT22;10568;48.176;16.316;2023-06-24T08:43:25;17.90;99.90
20815;DHT22;10568;48.176;16.316;2023-06-24T08:45:52;17.70;99.90
20815;DHT22;10568;48.176;16.316;2023-06-24T08:48:18;17.80;99.90
20815;DHT22;10568;48.176;16.316;2023-06-24T08:50:50;17.70;99.90
20815;DHT22;10568;48.176;16.316;2023-06-24T08:53:18;17.80;99.90
20815;DHT22;10568;48.176;16.316;2023-06-24T08:55:46;17.90;99.90
20815;DHT22;10568;48.176;16.316;2023-06-24T08:58:13;18.00;99.90
20815;DHT22;10568;48.176;16.316;2023-06-24T09:00:39;17.90;99.90
20815;DHT22;10568;48.176;16.316;2023-06-24T09:03:06;17.90;99.90
20815;DHT22;10568;48.176;16.316;2023-06-24T09:05:32;18.10;99.90
20815;DHT22;10568;48.176;16.316;2023-06-24T09:07:58;18.00;99.90
20815;DHT22;10568;48.176;16.316;2023-06-24T09:10:30;18.00;99.90
20815;DHT22;10568;48.176;16.316;2023-06-24T09:13:00;17.90;99.90
20815;DHT22;10568;48.176;16.316;2023-06-24T09:15:33;17.90;99.90
20815;DHT22;10568;48.176;16.316;2023-06-24T09:17:59;17.90;99.90
20815;DHT22;10568;48.176;16.316;2023-06-24T09:20:27;17.80;99.90
20815;DHT22;10568;48.176;16.316;2023-06-24T09:22:58;17.80;99.90
20815;DHT22;10568;48.176;16.316;2023-06-24T09:25:24;17.80;99.90
20815;DHT22;10568;48.176;16.316;2023-06-24T09:27:50;17.80;99.90
20815;DHT22;10568;48.176;16.316;2023-06-24T09:30:19;17.80;99.90
20815;DHT22;10568;48.176;16.316;2023-06-24T09:32:46;17.80;99.90
20815;DHT22;10568;48.176;16.316;2023-06-24T09:35:13;17.60;99.90
20815;DHT22;10568;48.176;16.316;2023-06-24T09:37:39;17.60;99.90
20815;DHT22;10568;48.176;16.316;2023-06-24T09:40:06;17.50;99.90
20815;DHT22;10568;48.176;16.316;2023-06-24T09:42:34;17.20;99.90
20815;DHT22;10568;48.176;16.316;2023-06-24T09:45:04;17.40;99.90
20815;DHT22;10568;48.176;16.316;2023-06-24T09:47:31;17.40;99.90
20815;DHT22;10568;48.176;16.316;2023-06-24T09:49:57;17.40;99.90
20815;DHT22;10568;48.176;16.316;2023-06-24T09:52:23;17.50;99.90
20815;DHT22;10568;48.176;16.316;2023-06-24T09:54:51;17.50;99.90
20815;DHT22;10568;48.176;16.316;2023-06-24T09:57:22;17.50;99.90
20815;DHT22;10568;48.176;16.316;2023-06-24T09:59:51;17.50;99.90
20815;DHT22;10568;48.176;16.316;2023-06-24T10:02:18;17.50;99.90
20815;DHT22;10568;48.176;16.316;2023-06-24T10:04:44;17.40;99.90
20815;DHT22;10568;48.176;16.316;2023-06-24T10:07:12;17.40;99.90
20815;DHT22;10568;48.176;16.316;2023-06-24T10:09:40;17.50;99.90
20815;DHT22;10568;48.176;16.316;2023-06-24T10:12:06;17.60;99.90
20815;DHT22;10568;48.176;16.316;2023-06-24T10:14:32;17.60;99.90
20815;DHT22;10568;48.176;16.316;2023-06-24T10:17:05;17.70;99.90
20815;DHT22;10568;48.176;16.316;2023-06-24T10:19:37;17.60;99.90
20815;DHT22;10568;48.176;16.316;2023-06-24T10:22:07;17.60;99.90
20815;DHT22;10568;48.176;16.316;2023-06-24T10:24:36;17.60;99.90
20815;DHT22;10568;48.176;16.316;2023-06-24T10:27:07;17.50;99.90
20815;DHT22;10568;48.176;16.316;2023-06-24T10:29:34;17.40;99.90
20815;DHT22;10568;48.176;16.316;2023-06-24T10:32:03;17.40;99.90
20815;DHT22;10568;48.176;16.316;2023-06-24T10:34:34;17.50;99.90
20815;DHT22;10568;48.176;16.316;2023-06-24T10:37:02;17.40;99.90
20815;DHT22;10568;48.176;16.316;2023-06-24T10:39:56;17.40;99.90
20815;DHT22;10568;48.176;16.316;2023-06-24T10:47:39;17.20;99.90
20815;DHT22;10568;48.176;16.316;2023-06-24T10:50:06;17.20;99.90
20815;DHT22;10568;48.176;16.316;2023-06-24T10:52:38;17.30;99.90
20815;DHT22;10568;48.176;16.316;2023-06-24T10:55:04;17.10;99.90
20815;DHT22;10568;48.176;16.316;2023-06-24T10:57:30;17.20;99.90
20815;DHT22;10568;48.176;16.316;2023-06-24T10:59:57;17.20;99.90
20815;DHT22;10568;48.176;16.316;2023-06-24T11:02:27;17.20;99.90
20815;DHT22;10568;48.176;16.316;2023-06-24T11:04:57;17.10;99.90
20815;DHT22;10568;48.176;16.316;2023-06-24T11:07:31;17.20;99.90
20815;DHT22;10568;48.176;16.316;2023-06-24T11:10:01;17.20;99.90
20815;DHT22;10568;48.176;16.316;2023-06-24T11:12:31;17.30;99.90
20815;DHT22;10568;48.176;16.316;2023-06-24T11:14:59;17.30;99.90
20815;DHT22;10568;48.176;16.316;2023-06-24T11:17:26;17.30;99.90
20815;DHT22;10568;48.176;16.316;2023-06-24T11:19:53;17.30;99.90
20815;DHT22;10568;48.176;16.316;2023-06-24T11:22:19;17.40;99.90
20815;DHT22;10568;48.176;16.316;2023-06-24T11:24:45;17.30;99.90
20815;DHT22;10568;48.176;16.316;2023-06-24T11:27:11;17.40;99.90
20815;DHT22;10568;48.176;16.316;2023-06-24T11:29:37;17.40;99.90
20815;DHT22;10568;48.176;16.316;2023-06-24T11:32:08;17.30;99.90
20815;DHT22;10568;48.176;16.316;2023-06-24T11:34:37;17.40;99.90
20815;DHT22;10568;48.176;16.316;2023-06-24T11:37:14;17.40;99.90
20815;DHT22;10568;48.176;16.316;2023-06-24T11:39:39;17.50;99.90
20815;DHT22;10568;48.176;16.316;2023-06-24T11:42:07;17.40;99.90
20815;DHT22;10568;48.176;16.316;2023-06-24T11:44:40;17.50;99.90
20815;DHT22;10568;48.176;16.316;2023-06-24T11:47:08;17.30;99.90
20815;DHT22;10568;48.176;16.316;2023-06-24T11:49:55;17.40;99.90
20815;DHT22;10568;48.176;16.316;2023-06-24T11:55:01;17.40;99.90
20815;DHT22;10568;48.176;16.316;2023-06-24T12:00:27;17.40;99.90
20815;DHT22;10568;48.176;16.316;2023-06-24T12:02:55;17.50;99.90
20815;DHT22;10568;48.176;16.316;2023-06-24T12:05:29;17.50;99.90
20815;DHT22;10568;48.176;16.316;2023-06-24T12:08:15;17.50;99.90
20815;DHT22;10568;48.176;16.316;2023-06-24T12:10:41;17.40;99.90
20815;DHT22;10568;48.176;16.316;2023-06-24T12:13:08;17.40;99.90
20815;DHT22;10568;48.176;16.316;2023-06-24T12:15:34;17.40;99.90
20815;DHT22;10568;48.176;16.316;2023-06-24T12:18:01;17.40;99.90
20815;DHT22;10568;48.176;16.316;2023-06-24T12:20:28;17.40;99.90
20815;DHT22;10568;48.176;16.316;2023-06-24T12:22:54;17.40;99.90
20815;DHT22;10568;48.176;16.316;2023-06-24T12:25:21;17.40;99.90
20815;DHT22;10568;48.176;16.316;2023-06-24T12:27:47;17.40;99.90
20815;DHT22;10568;48.176;16.316;2023-06-24T12:30:13;17.50;99.90
20815;DHT22;10568;48.176;16.316;2023-06-24T12:32:39;17.50;99.90
20815;DHT22;10568;48.176;16.316;2023-06-24T12:35:06;17.50;99.90
20815;DHT22;10568;48.176;16.316;2023-06-24T12:37:33;17.60;99.90
20815;DHT22;10568;48.176;16.316;2023-06-24T12:40:00;17.60;99.90
20815;DHT22;10568;48.176;16.316;2023-06-24T12:42:26;17.60;99.90
20815;DHT22;10568;48.176;16.316;2023-06-24T12:44:52;17.70;99.90
20815;DHT22;10568;48.176;16.316;2023-06-24T12:47:18;17.80;99.90
20815;DHT22;10568;48.176;16.316;2023-06-24T12:49:44;17.90;99.90
20815;DHT22;10568;48.176;16.316;2023-06-24T12:52:11;17.90;99.90
20815;DHT22;10568;48.176;16.316;2023-06-24T12:54:36;17.70;99.90
20815;DHT22;10568;48.176;16.316;2023-06-24T12:57:02;17.80;99.90
20815;DHT22;10568;48.176;16.316;2023-06-24T12:59:28;17.80;99.90
20815;DHT22;10568;48.176;16.316;2023-06-24T13:01:54;17.70;99.90
20815;DHT22;10568;48.176;16.316;2023-06-24T13:04:19;17.80;99.90
20815;DHT22;10568;48.176;16.316;2023-06-24T13:06:48;17.80;99.90
20815;DHT22;10568;48.176;16.316;2023-06-24T13:09:17;17.80;99.90
20815;DHT22;10568;48.176;16.316;2023-06-24T13:11:42;17.80;99.90
20815;DHT22;10568;48.176;16.316;2023-06-24T13:14:08;17.80;99.90
20815;DHT22;10568;48.176;16.316;2023-06-24T13:16:36;17.80;99.90
20815;DHT22;10568;48.176;16.316;2023-06-24T13:19:02;17.80;99.90
20815;DHT22;10568;48.176;16.316;2023-06-24T13:21:28;17.70;99.90
20815;DHT22;10568;48.176;16.316;2023-06-24T13:23:54;17.80;99.90
20815;DHT22;10568;48.176;16.316;2023-06-24T13:26:19;17.80;99.90
20815;DHT22;10568;48.176;16.316;2023-06-24T13:28:45;17.80;99.90
20815;DHT22;10568;48.176;16.316;2023-06-24T13:31:11;17.90;99.90
20815;DHT22;10568;48.176;16.316;2023-06-24T13:33:37;17.80;99.90
20815;DHT22;10568;48.176;16.316;2023-06-24T13:36:04;17.90;99.90
20815;DHT22;10568;48.176;16.316;2023-06-24T13:38:32;17.90;99.90
20815;DHT22;10568;48.176;16.316;2023-06-24T13:40:58;17.90;99.90
20815;DHT22;10568;48.176;16.316;2023-06-24T13:43:24;17.90;99.90
20815;DHT22;10568;48.176;16.316;2023-06-24T13:45:51;18.00;99.90
20815;DHT22;10568;48.176;16.316;2023-06-24T13:48:17;18.10;99.90
20815;DHT22;10568;48.176;16.316;2023-06-24T13:50:43;18.20;99.90
20815;DHT22;10568;48.176;16.316;2023-06-24T13:53:08;18.20;99.90
20815;DHT22;10568;48.176;16.316;2023-06-24T13:55:34;18.20;99.90
20815;DHT22;10568;48.176;16.316;2023-06-24T13:58:02;18.30;99.90
20815;DHT22;10568;48.176;16.316;2023-06-24T14:00:28;18.20;99.90
20815;DHT22;10568;48.176;16.316;2023-06-24T14:02:53;18.20;99.90
20815;DHT22;10568;48.176;16.316;2023-06-24T14:05:20;18.20;99.90
20815;DHT22;10568;48.176;16.316;2023-06-24T14:07:46;18.10;99.90
20815;DHT22;10568;48.176;16.316;2023-06-24T14:10:11;18.10;99.90
20815;DHT22;10568;48.176;16.316;2023-06-24T14:12:37;18.10;99.90
20815;DHT22;10568;48.176;16.316;2023-06-24T14:15:04;18.20;99.90
20815;DHT22;10568;48.176;16.316;2023-06-24T14:17:30;18.20;99.90
20815;DHT22;10568;48.176;16.316;2023-06-24T14:19:56;18.20;99.90
20815;DHT22;10568;48.176;16.316;2023-06-24T14:22:21;18.30;99.90
20815;DHT22;10568;48.176;16.316;2023-06-24T14:24:48;18.40;99.90
20815;DHT22;10568;48.176;16.316;2023-06-24T14:27:14;18.40;99.90
20815;DHT22;10568;48.176;16.316;2023-06-24T14:29:40;18.40;99.90
20815;DHT22;10568;48.176;16.316;2023-06-24T14:32:06;18.50;99.90
20815;DHT22;10568;48.176;16.316;2023-06-24T14:34:32;18.60;99.90
20815;DHT22;10568;48.176;16.316;2023-06-24T14:36:58;18.70;99.90
20815;DHT22;10568;48.176;16.316;2023-06-24T14:39:24;19.00;99.90
20815;DHT22;10568;48.176;16.316;2023-06-24T14:41:50;19.00;99.90
20815;DHT22;10568;48.176;16.316;2023-06-24T14:44:16;19.20;99.90
20815;DHT22;10568;48.176;16.316;2023-06-24T14:46:41;19.40;99.90
20815;DHT22;10568;48.176;16.316;2023-06-24T14:49:07;19.60;99.90
20815;DHT22;10568;48.176;16.316;2023-06-24T14:51:33;19.80;99.90
20815;DHT22;10568;48.176;16.316;2023-06-24T14:53:59;19.90;99.90
20815;DHT22;10568;48.176;16.316;2023-06-24T14:56:25;20.00;99.90
20815;DHT22;10568;48.176;16.316;2023-06-24T14:58:51;19.90;99.90
20815;DHT22;10568;48.176;16.316;2023-06-24T15:01:16;20.00;99.90
20815;DHT22;10568;48.176;16.316;2023-06-24T15:03:42;20.00;99.90
20815;DHT22;10568;48.176;16.316;2023-06-24T15:06:08;20.00;99.90
20815;DHT22;10568;48.176;16.316;2023-06-24T15:08:34;20.00;99.90
20815;DHT22;10568;48.176;16.316;2023-06-24T15:11:00;20.00;99.90
20815;DHT22;10568;48.176;16.316;2023-06-24T15:13:25;20.00;99.90
20815;DHT22;10568;48.176;16.316;2023-06-24T15:15:51;20.00;99.90
20815;DHT22;10568;48.176;16.316;2023-06-24T15:18:21;19.90;99.90
20815;DHT22;10568;48.176;16.316;2023-06-24T15:20:47;19.80;99.90
20815;DHT22;10568;48.176;16.316;2023-06-24T15:23:12;19.80;99.90
20815;DHT22;10568;48.176;16.316;2023-06-24T15:25:38;19.90;99.90
20815;DHT22;10568;48.176;16.316;2023-06-24T15:28:04;19.70;99.90
20815;DHT22;10568;48.176;16.316;2023-06-24T15:30:29;19.80;99.90
20815;DHT22;10568;48.176;16.316;2023-06-24T15:32:55;19.80;99.90
20815;DHT22;10568;48.176;16.316;2023-06-24T15:35:21;19.90;99.90
20815;DHT22;10568;48.176;16.316;2023-06-24T15:37:47;20.00;99.90